Las Vegas, Nevada
Traffic Map
Current Weather Conditions
Las Vegas, Nevada
Broken Clouds
Broken Clouds
71°
Feels Like: 71°
Wind Chill: 71° Ceiling: 25000
Heat Index: 71° Visibility: 10mi
Dew Point: 25° Wind: 7mph
Humidity: 18% Direction: 160° (SSE)
Pressure: 29.76in Gusts: 0mph
Raw Report DataKLAS 231356Z 16006KT 10SM BKN250 22/M04 A2976 RMK AO2 SLP058 T02171039
Traffic Incident Summary
Active as of:
Severity:
Category:
InformationThere was an issue retrieving the traffic information for this location. Please try a different location or try again shortly.
Advertisements
Track Severe Weather on mobile